Time;durP1;ratioP1;P1;durP2;ratioP2;P2;SDS_P1;SDS_P2;PMS_P1;PMS_P2;Temp;Humidity;BMP_temperature;BMP_pressure;BME280_temperature;BME280_humidity;BME280_pressure;Samples;Min_cycle;Max_cycle;Signal;HPM_P1;HPM_P2
2021/05/08 00:02:08;;;;;;;;;;;;;;;8.44;69.74;96071.06;1724751;83;20225;-55
2021/05/08 00:04:35;;;;;;;;;;;;;;;8.42;70.09;96082.41;1725020;83;20497;-55
2021/05/08 00:07:03;;;;;;;;;;;;;;;8.41;70.27;96083.35;1725063;83;20217;-55
2021/05/08 00:09:30;;;;;;;;;;;;;;;8.39;70.19;96083.94;1724949;82;22118;-54
2021/05/08 00:11:58;;;;;;;;;;;;;;;8.38;70.35;96091.32;1724928;83;20217;-55
2021/05/08 00:14:29;;;;;;;;;;;;;;;8.34;70.50;96099.77;1725039;83;20497;-55
2021/05/08 00:17:06;;;;;;;;;;;;;;;8.33;70.81;96111.02;1685557;85;20225;-55
2021/05/08 00:19:36;;;;;;;;;;;;;;;8.33;70.86;96114.90;1687580;83;20246;-55
2021/05/08 00:22:03;;;;;;;;;;;;;;;8.30;71.03;96125.45;1656456;86;21394;-55
2021/05/08 00:24:31;;;;;;;;;;;;;;;8.32;71.27;96131.80;1642959;86;20550;-55
2021/05/08 00:26:58;;;;;;;;;;;;;;;8.35;71.47;96136.77;1631952;86;20271;-55
2021/05/08 00:29:26;;;;;;;;;;;;;;;8.37;71.47;96136.19;1692587;84;20217;-55
2021/05/08 00:31:53;;;;;;;;;;;;;;;8.38;71.41;96146.42;1675495;84;20227;-55
2021/05/08 00:34:20;;;;;;;;;;;;;;;8.39;71.44;96151.97;1651982;87;21429;-55
2021/05/08 00:36:48;;;;;;;;;;;;;;;8.38;71.58;96153.36;1651957;85;20546;-55
2021/05/08 00:39:16;;;;;;;;;;;;;;;8.35;71.43;96164.73;1682239;84;20310;-55
2021/05/08 00:41:43;;;;;;;;;;;;;;;8.29;71.53;96163.41;1693957;84;20225;-55
2021/05/08 00:44:11;;;;;;;;;;;;;;;8.29;71.63;96170.34;1694049;84;20221;-55
2021/05/08 00:46:41;;;;;;;;;;;;;;;8.27;71.46;96174.77;1665392;84;21205;-55
2021/05/08 00:49:09;;;;;;;;;;;;;;;8.22;71.15;96182.00;1647893;84;20540;-55
2021/05/08 00:51:37;;;;;;;;;;;;;;;8.11;70.64;96190.02;1693839;83;20225;-55
2021/05/08 00:54:04;;;;;;;;;;;;;;;8.01;71.03;96202.35;1676973;84;20255;-55
2021/05/08 00:56:31;;;;;;;;;;;;;;;7.92;70.61;96208.97;1643321;84;20250;-55
2021/05/08 00:59:00;;;;;;;;;;;;;;;7.72;69.53;96210.28;1657008;84;21260;-55
2021/05/08 01:01:28;;;;;;;;;;;;;;;7.48;69.77;96221.72;1693947;84;20230;-55
2021/05/08 01:03:55;;;;;;;;;;;;;;;7.28;69.67;96230.26;1694041;84;20225;-55
2021/05/08 01:06:23;;;;;;;;;;;;;;;7.11;69.22;96218.90;1694011;84;20518;-55
2021/05/08 01:08:51;;;;;;;;;;;;;;;6.89;69.03;96234.42;1673550;84;20229;-55
2021/05/08 01:11:19;;;;;;;;;;;;;;;6.68;69.49;96256.33;1694099;84;22434;-55
2021/05/08 01:13:46;;;;;;;;;;;;;;;6.51;69.78;96253.48;1666405;84;20223;-55
2021/05/08 01:16:14;;;;;;;;;;;;;;;6.32;70.17;96271.33;1661736;85;20218;-55
2021/05/08 01:18:42;;;;;;;;;;;;;;;6.22;70.39;96276.66;1657420;85;20235;-55
2021/05/08 01:21:14;;;;;;;;;;;;;;;6.14;70.50;96276.27;1686478;84;20542;-55
2021/05/08 01:23:43;;;;;;;;;;;;;;;6.02;70.42;96272.19;1673594;84;20726;-55
2021/05/08 01:26:11;;;;;;;;;;;;;;;5.96;70.72;96293.58;1658805;86;20640;-55
2021/05/08 01:28:40;;;;;;;;;;;;;;;5.91;71.00;96293.83;1658733;86;20223;-55
2021/05/08 01:31:11;;;;;;;;;;;;;;;5.90;71.19;96294.30;1652933;85;20291;-55
2021/05/08 01:33:41;;;;;;;;;;;;;;;5.90;71.33;96296.87;1644844;87;20244;-55
2021/05/08 01:36:09;;;;;;;;;;;;;;;5.90;71.42;96311.03;1644733;87;21179;-55
2021/05/08 01:38:36;;;;;;;;;;;;;;;5.87;71.36;96306.05;1639725;85;20527;-55
2021/05/08 01:41:07;;;;;;;;;;;;;;;5.86;71.46;96306.95;1617667;87;20233;-54
2021/05/08 01:43:34;;;;;;;;;;;;;;;5.86;71.30;96303.09;1616218;87;20241;-55
2021/05/08 01:46:02;;;;;;;;;;;;;;;5.88;71.07;96310.27;1618320;88;20233;-54
2021/05/08 01:48:30;;;;;;;;;;;;;;;5.86;70.99;96309.53;1618314;87;21435;-55
2021/05/08 01:50:58;;;;;;;;;;;;;;;5.87;71.34;96300.91;1602038;87;20881;-55
2021/05/08 01:53:27;;;;;;;;;;;;;;;5.92;70.83;96310.09;1664574;85;20247;-53
2021/05/08 01:55:54;;;;;;;;;;;;;;;5.92;70.62;96316.10;1637338;87;20275;-55
2021/05/08 01:58:24;;;;;;;;;;;;;;;5.90;70.43;96317.91;1624358;88;20784;-55
2021/05/08 02:00:53;;;;;;;;;;;;;;;5.89;70.38;96317.56;1624326;88;20612;-55
2021/05/08 02:03:21;;;;;;;;;;;;;;;5.88;70.47;96314.59;1617671;87;20502;-55
2021/05/08 02:05:50;;;;;;;;;;;;;;;5.90;70.52;96317.47;1597847;88;20513;-55
2021/05/08 02:08:37;;;;;;;;;;;;;;;5.92;70.42;96324.27;1576853;90;20259;-55
2021/05/08 02:11:06;;;;;;;;;;;;;;;5.95;70.25;96331.82;1676534;84;20246;-55
2021/05/08 02:13:34;;;;;;;;;;;;;;;6.00;70.31;96329.84;1652248;87;21451;-55
2021/05/08 02:16:01;;;;;;;;;;;;;;;6.03;70.15;96333.07;1649944;85;20254;-55
2021/05/08 02:18:31;;;;;;;;;;;;;;;6.03;70.02;96332.25;1644966;87;20254;-55
2021/05/08 02:20:58;;;;;;;;;;;;;;;6.07;70.01;96335.86;1644955;87;20222;-55
2021/05/08 02:23:27;;;;;;;;;;;;;;;6.07;69.66;96338.44;1644868;85;20286;-56
2021/05/08 02:25:54;;;;;;;;;;;;;;;6.07;69.84;96340.19;1644970;87;21216;-54
2021/05/08 02:28:22;;;;;;;;;;;;;;;6.06;70.08;96339.34;1644928;85;20509;-55
2021/05/08 02:30:49;;;;;;;;;;;;;;;6.03;69.89;96351.09;1666521;86;20243;-55
2021/05/08 02:33:21;;;;;;;;;;;;;;;6.00;69.81;96332.42;1618304;88;20236;-56
2021/05/08 02:35:48;;;;;;;;;;;;;;;5.96;69.99;96350.23;1628681;85;20241;-55
2021/05/08 02:38:16;;;;;;;;;;;;;;;5.92;70.34;96346.15;1643205;87;21278;-55
2021/05/08 02:40:43;;;;;;;;;;;;;;;5.93;70.39;96348.64;1615281;87;20498;-56
2021/05/08 02:43:12;;;;;;;;;;;;;;;5.94;70.31;96351.60;1655151;85;20223;-56
2021/05/08 02:45:41;;;;;;;;;;;;;;;5.93;70.25;96354.27;1671955;86;20227;-55
2021/05/08 02:48:09;;;;;;;;;;;;;;;5.89;70.18;96363.44;1645002;87;20246;-56
2021/05/08 02:50:39;;;;;;;;;;;;;;;5.87;70.25;96357.55;1668374;86;20519;-55
2021/05/08 02:53:08;;;;;;;;;;;;;;;5.90;70.14;96364.27;1666442;86;20295;-55
2021/05/08 02:55:37;;;;;;;;;;;;;;;5.95;70.37;96371.27;1644722;87;20293;-55
2021/05/08 02:58:05;;;;;;;;;;;;;;;6.01;70.33;96367.57;1644912;87;20233;-55
2021/05/08 03:00:34;;;;;;;;;;;;;;;6.06;70.09;96372.83;1645052;87;20600;-56
2021/05/08 03:03:03;;;;;;;;;;;;;;;6.10;70.02;96370.90;1644787;87;21405;-55
2021/05/08 03:05:32;;;;;;;;;;;;;;;6.16;69.99;96373.61;1644914;87;20221;-55
2021/05/08 03:08:02;;;;;;;;;;;;;;;6.23;70.07;96367.18;1642283;87;20235;-55
2021/05/08 03:10:30;;;;;;;;;;;;;;;6.23;69.44;96371.05;1671130;86;20248;-55
2021/05/08 03:12:58;;;;;;;;;;;;;;;6.20;69.05;96371.22;1672221;86;20271;-56
2021/05/08 03:15:27;;;;;;;;;;;;;;;6.13;69.39;96375.88;1672171;86;21231;-56
2021/05/08 03:17:55;;;;;;;;;;;;;;;6.14;70.11;96376.27;1626428;85;20242;-55
2021/05/08 03:20:23;;;;;;;;;;;;;;;6.17;69.67;96366.27;1647994;87;20254;-55
2021/05/08 03:22:52;;;;;;;;;;;;;;;6.19;69.51;96363.14;1647682;87;20250;-54
2021/05/08 03:25:20;;;;;;;;;;;;;;;6.25;69.45;96362.80;1621498;88;20252;-55
2021/05/08 03:27:49;;;;;;;;;;;;;;;6.32;69.44;96364.56;1622127;85;21232;-55
2021/05/08 03:30:17;;;;;;;;;;;;;;;6.39;69.33;96361.52;1621495;88;20235;-55
2021/05/08 03:32:46;;;;;;;;;;;;;;;6.46;69.15;96363.29;1621616;88;20240;-55
2021/05/08 03:35:14;;;;;;;;;;;;;;;6.53;68.91;96360.75;1621550;88;20235;-55
2021/05/08 03:37:42;;;;;;;;;;;;;;;6.57;68.67;96370.41;1622184;87;20256;-54
2021/05/08 03:40:11;;;;;;;;;;;;;;;6.57;68.29;96371.23;1617941;87;22157;-55
2021/05/08 03:42:39;;;;;;;;;;;;;;;6.54;68.13;96377.85;1661166;86;20219;-55
2021/05/08 03:45:08;;;;;;;;;;;;;;;6.52;67.91;96396.92;1661363;86;20492;-55
2021/05/08 03:47:35;;;;;;;;;;;;;;;6.45;67.50;96399.02;1661272;86;20223;-56
2021/05/08 03:50:03;;;;;;;;;;;;;;;6.33;67.32;96408.72;1661298;86;20228;-55
2021/05/08 03:52:32;;;;;;;;;;;;;;;6.23;67.19;96411.83;1661274;85;21224;-55
2021/05/08 03:55:00;;;;;;;;;;;;;;;6.17;66.96;96415.21;1689254;83;20241;-54
2021/05/08 03:57:27;;;;;;;;;;;;;;;6.17;66.92;96422.47;1678440;84;20318;-55
2021/05/08 03:59:57;;;;;;;;;;;;;;;6.24;66.75;96422.95;1692021;83;20243;-55
2021/05/08 04:02:24;;;;;;;;;;;;;;;6.29;66.55;96431.26;1697439;84;20222;-55
2021/05/08 04:04:52;;;;;;;;;;;;;;;6.32;66.13;96441.87;1700966;82;20569;-56
2021/05/08 04:07:20;;;;;;;;;;;;;;;6.31;66.02;96447.92;1718007;83;20227;-56
2021/05/08 04:09:49;;;;;;;;;;;;;;;6.32;66.28;96441.40;1700073;83;20231;-56
2021/05/08 04:12:16;;;;;;;;;;;;;;;6.35;65.81;96445.53;1718834;83;21322;-55
2021/05/08 04:14:43;;;;;;;;;;;;;;;6.49;65.80;96440.91;1672908;86;21017;-55
2021/05/08 04:17:11;;;;;;;;;;;;;;;7.14;63.80;96441.42;1694123;83;21217;-56
2021/05/08 04:19:38;;;;;;;;;;;;;;;8.07;60.16;96449.55;1680718;84;20232;-54
2021/05/08 04:22:06;;;;;;;;;;;;;;;8.93;56.20;96434.63;1693574;84;20213;-55
2021/05/08 04:24:33;;;;;;;;;;;;;;;9.66;54.09;96454.71;1672330;84;21211;-55
2021/05/08 04:27:00;;;;;;;;;;;;;;;10.37;51.89;96456.25;1665604;85;20225;-55
2021/05/08 04:29:38;;;;;;;;;;;;;;;11.13;49.61;96446.84;1666299;84;21407;-55
2021/05/08 04:32:11;;;;;;;;;;;;;;;11.73;46.69;96453.52;1637985;85;20334;-55
2021/05/08 04:34:39;;;;;;;;;;;;;;;11.91;45.17;96457.78;1700137;83;20234;-55
2021/05/08 04:37:07;;;;;;;;;;;;;;;11.75;45.66;96460.71;1721093;83;20219;-57
2021/05/08 04:39:34;;;;;;;;;;;;;;;12.04;45.06;96454.21;1712673;83;20235;-55
2021/05/08 04:42:02;;;;;;;;;;;;;;;12.53;43.16;96454.21;1719295;83;21357;-57
2021/05/08 04:44:30;;;;;;;;;;;;;;;12.97;41.79;96446.34;1692932;83;20230;-56
2021/05/08 04:46:58;;;;;;;;;;;;;;;13.32;40.68;96448.66;1690597;83;20328;-55
2021/05/08 04:49:26;;;;;;;;;;;;;;;13.58;39.51;96439.10;1723965;83;20236;-55
2021/05/08 04:51:55;;;;;;;;;;;;;;;13.85;39.05;96451.57;1723999;83;20241;-55
2021/05/08 04:54:23;;;;;;;;;;;;;;;14.14;38.44;96458.19;1678659;83;21851;-56
2021/05/08 04:56:51;;;;;;;;;;;;;;;14.47;37.84;96464.02;1665825;84;20545;-55
2021/05/08 04:59:18;;;;;;;;;;;;;;;14.72;37.51;96466.60;1668868;84;20232;-55
2021/05/08 05:01:46;;;;;;;;;;;;;;;14.87;37.30;96475.34;1689704;85;20655;-56
2021/05/08 05:04:19;;;;;;;;;;;;;;;15.18;36.68;96477.77;1689778;83;20238;-54
2021/05/08 05:06:46;;;;;;;;;;;;;;;15.58;35.98;96476.25;1689726;85;21208;-55
2021/05/08 05:09:15;;;;;;;;;;;;;;;15.93;34.86;96481.31;1692589;84;20257;-55
2021/05/08 05:11:43;;;;;;;;;;;;;;;16.25;34.13;96489.70;1695177;84;20232;-55
2021/05/08 05:14:11;;;;;;;;;;;;;;;16.50;33.54;96481.65;1695190;84;20229;-54
2021/05/08 05:16:39;;;;;;;;;;;;;;;16.57;32.66;96482.70;1693051;83;20229;-55
2021/05/08 05:19:07;;;;;;;;;;;;;;;16.59;32.46;96489.91;1695006;83;21304;-55
2021/05/08 05:21:34;;;;;;;;;;;;;;;16.72;31.80;96493.48;1695071;84;20510;-55
2021/05/08 05:24:02;;;;;;;;;;;;;;;16.63;32.17;96497.83;1694921;83;20229;-56
2021/05/08 05:26:31;;;;;;;;;;;;;;;16.79;32.52;96497.14;1695143;84;20233;-56
2021/05/08 05:28:58;;;;;;;;;;;;;;;17.25;31.44;96497.92;1667188;86;20247;-55
2021/05/08 05:31:27;;;;;;;;;;;;;;;17.62;30.11;96489.48;1667741;84;22162;-55
2021/05/08 05:33:55;;;;;;;;;;;;;;;17.64;29.41;96490.14;1665683;85;20227;-55
2021/05/08 05:36:23;;;;;;;;;;;;;;;17.46;29.11;96496.25;1665703;86;20253;-55
2021/05/08 05:38:50;;;;;;;;;;;;;;;17.20;29.81;96500.64;1679450;84;20241;-56
2021/05/08 05:41:18;;;;;;;;;;;;;;;17.37;29.67;96503.73;1694866;84;20305;-56
2021/05/08 05:43:45;;;;;;;;;;;;;;;17.44;29.89;96502.14;1695116;84;21214;-56
2021/05/08 05:46:13;;;;;;;;;;;;;;;16.91;30.24;96514.83;1695172;83;20225;-56
2021/05/08 05:48:52;;;;;;;;;;;;;;;15.95;30.83;96516.49;1697082;83;20229;-55
2021/05/08 05:51:20;;;;;;;;;;;;;;;14.86;32.21;96525.92;1700468;84;20231;-56
2021/05/08 05:53:55;;;;;;;;;;;;;;;13.92;33.88;96529.62;1706363;83;20235;-56
2021/05/08 05:56:16;;;;;;;;;;;;;;;13.24;35.02;96529.22;1713991;83;21376;-57
2021/05/08 05:58:44;;;;;;;;;;;;;;;12.66;35.71;96533.44;1715060;83;20239;-56
2021/05/08 06:01:11;;;;;;;;;;;;;;;12.15;36.45;96544.78;1715074;83;20265;-56
2021/05/08 06:03:38;;;;;;;;;;;;;;;11.66;37.37;96552.41;1715026;82;20220;-56
2021/05/08 06:06:06;;;;;;;;;;;;;;;11.23;38.61;96556.44;1715103;82;20282;-56
2021/05/08 06:08:33;;;;;;;;;;;;;;;10.89;39.06;96554.62;1710022;83;22100;-55
2021/05/08 06:11:00;;;;;;;;;;;;;;;10.59;39.77;96563.67;1707980;83;20223;-56
2021/05/08 06:13:31;;;;;;;;;;;;;;;10.36;40.72;96571.33;1715033;82;20248;-59
2021/05/08 06:15:57;;;;;;;;;;;;;;;10.14;41.16;96571.94;1706846;83;20222;-54
2021/05/08 06:18:25;;;;;;;;;;;;;;;9.93;41.49;96567.76;1700380;84;20514;-56
2021/05/08 06:20:52;;;;;;;;;;;;;;;9.76;42.02;96574.91;1700369;84;22158;-56
2021/05/08 06:23:21;;;;;;;;;;;;;;;9.69;43.00;96587.11;1705802;83;20217;-56
2021/05/08 06:25:48;;;;;;;;;;;;;;;9.66;42.91;96584.72;1715044;83;20232;-56
2021/05/08 06:28:17;;;;;;;;;;;;;;;9.60;42.72;96585.13;1706086;83;20291;-56
2021/05/08 06:30:44;;;;;;;;;;;;;;;9.47;42.54;96585.92;1700372;84;20226;-56
2021/05/08 06:33:12;;;;;;;;;;;;;;;9.38;43.16;96590.44;1700405;83;22171;-56
2021/05/08 06:35:39;;;;;;;;;;;;;;;9.38;43.64;96592.55;1702985;83;20244;-55
2021/05/08 06:38:06;;;;;;;;;;;;;;;9.38;43.71;96605.50;1712484;83;20274;-56
2021/05/08 06:40:34;;;;;;;;;;;;;;;9.39;44.05;96607.17;1700334;83;20506;-56
2021/05/08 06:43:01;;;;;;;;;;;;;;;9.45;44.11;96597.33;1699074;84;20514;-55
2021/05/08 06:45:28;;;;;;;;;;;;;;;9.54;44.11;96605.33;1698840;84;21335;-55
2021/05/08 06:47:59;;;;;;;;;;;;;;;9.55;43.60;96610.85;1698645;84;20223;-56
2021/05/08 06:50:27;;;;;;;;;;;;;;;9.55;43.68;96612.15;1698946;84;20232;-55
2021/05/08 06:52:54;;;;;;;;;;;;;;;9.53;43.73;96617.91;1702523;83;20227;-56
2021/05/08 06:55:22;;;;;;;;;;;;;;;9.51;44.05;96597.75;1709209;83;20239;-55
2021/05/08 06:57:50;;;;;;;;;;;;;;;9.49;43.09;96610.43;1698915;84;22215;-54
2021/05/08 07:00:18;;;;;;;;;;;;;;;9.42;42.88;96613.89;1698751;84;20223;-54
2021/05/08 07:02:45;;;;;;;;;;;;;;;9.38;43.01;96617.15;1698844;84;20249;-57
2021/05/08 07:05:13;;;;;;;;;;;;;;;9.35;43.36;96623.82;1698824;84;20231;-56
2021/05/08 07:07:42;;;;;;;;;;;;;;;9.36;42.78;96616.43;1698915;83;20506;-55
2021/05/08 07:10:10;;;;;;;;;;;;;;;9.35;42.66;96620.41;1698825;83;22164;-56
2021/05/08 07:12:39;;;;;;;;;;;;;;;9.39;43.16;96622.70;1672758;84;20239;-54
2021/05/08 07:15:15;;;;;;;;;;;;;;;9.53;43.30;96619.67;1667549;86;20255;-56
2021/05/08 07:18:01;;;;;;;;;;;;;;;9.74;43.37;96616.13;1648299;86;20243;-55
2021/05/08 07:20:29;;;;;;;;;;;;;;;9.98;43.18;96608.92;1672144;86;20538;-55
2021/05/08 07:22:57;;;;;;;;;;;;;;;10.13;41.70;96613.91;1665213;84;21219;-55
2021/05/08 07:25:24;;;;;;;;;;;;;;;10.09;41.46;96618.09;1665830;86;20220;-55
2021/05/08 07:27:51;;;;;;;;;;;;;;;10.06;41.48;96620.42;1665887;85;20312;-57
2021/05/08 07:30:20;;;;;;;;;;;;;;;10.17;41.68;96614.99;1665867;86;21276;-56
2021/05/08 07:32:47;;;;;;;;;;;;;;;10.24;41.84;96621.41;1665882;86;20248;-56
2021/05/08 07:35:14;;;;;;;;;;;;;;;10.36;42.15;96621.91;1665798;85;21372;-56
2021/05/08 07:37:41;;;;;;;;;;;;;;;10.63;42.36;96639.89;1665959;84;20621;-54
2021/05/08 07:40:11;;;;;;;;;;;;;;;10.82;41.47;96632.95;1693766;84;20221;-56
2021/05/08 07:42:38;;;;;;;;;;;;;;;11.00;40.71;96641.65;1711027;84;20241;-55
2021/05/08 07:45:06;;;;;;;;;;;;;;;11.01;40.37;96642.02;1709902;84;20499;-56
2021/05/08 07:47:34;;;;;;;;;;;;;;;10.98;40.66;96639.64;1683993;84;21367;-56
2021/05/08 07:50:03;;;;;;;;;;;;;;;10.96;40.20;96648.02;1678431;84;20220;-56
2021/05/08 07:52:31;;;;;;;;;;;;;;;10.97;40.54;96648.35;1678584;84;20292;-56
2021/05/08 07:54:59;;;;;;;;;;;;;;;10.91;40.14;96650.92;1677748;85;20599;-56
2021/05/08 07:57:27;;;;;;;;;;;;;;;10.82;40.09;96658.91;1678565;85;21722;-56
2021/05/08 07:59:54;;;;;;;;;;;;;;;10.75;40.26;96650.35;1678591;85;22308;-56
2021/05/08 08:02:22;;;;;;;;;;;;;;;10.65;40.27;96652.76;1678403;85;20591;-56
2021/05/08 08:04:50;;;;;;;;;;;;;;;10.55;40.92;96661.65;1678455;84;20232;-56
2021/05/08 08:07:17;;;;;;;;;;;;;;;10.51;41.77;96657.63;1678464;85;20253;-56
2021/05/08 08:09:46;;;;;;;;;;;;;;;10.52;42.19;96667.52;1655254;85;20510;-54
2021/05/08 08:12:14;;;;;;;;;;;;;;;10.49;41.61;96669.84;1651072;86;21211;-56
2021/05/08 08:14:42;;;;;;;;;;;;;;;10.38;41.36;96675.79;1650951;85;20614;-54
2021/05/08 08:17:09;;;;;;;;;;;;;;;10.29;41.38;96675.90;1638078;87;20496;-55
2021/05/08 08:19:37;;;;;;;;;;;;;;;10.23;41.70;96684.12;1635077;86;20485;-55
2021/05/08 08:22:04;;;;;;;;;;;;;;;10.16;42.21;96680.26;1656512;86;20239;-55
2021/05/08 08:24:32;;;;;;;;;;;;;;;10.06;42.03;96680.52;1669238;85;22123;-55
2021/05/08 08:27:00;;;;;;;;;;;;;;;10.01;42.22;96695.08;1676079;84;20251;-55
2021/05/08 08:29:28;;;;;;;;;;;;;;;10.00;42.52;96697.33;1622346;88;20255;-55
2021/05/08 08:31:56;;;;;;;;;;;;;;;9.98;42.89;96700.94;1622591;88;20234;-55
2021/05/08 08:34:23;;;;;;;;;;;;;;;9.97;42.43;96699.27;1622656;88;20227;-55
2021/05/08 08:36:51;;;;;;;;;;;;;;;9.96;42.25;96699.74;1622708;88;22290;-55
2021/05/08 08:39:18;;;;;;;;;;;;;;;9.93;42.23;96709.02;1647077;86;21944;-55
2021/05/08 08:41:47;;;;;;;;;;;;;;;9.88;42.21;96712.38;1656308;85;32636;-54
2021/05/08 08:44:14;;;;;;;;;;;;;;;9.83;42.46;96715.27;1649187;85;20567;-55
2021/05/08 08:46:43;;;;;;;;;;;;;;;9.78;42.60;96717.81;1649146;87;20252;-55
2021/05/08 08:49:11;;;;;;;;;;;;;;;9.74;42.82;96723.66;1656544;85;21370;-55
2021/05/08 08:51:39;;;;;;;;;;;;;;;9.74;43.24;96733.55;1656433;86;20222;-55
2021/05/08 08:54:09;;;;;;;;;;;;;;;9.73;43.13;96734.94;1640546;84;20228;-55
2021/05/08 08:56:43;;;;;;;;;;;;;;;9.72;43.23;96731.53;1629811;86;20708;-55
2021/05/08 09:01:54;;;;;;;;;;;;;;;9.83;43.45;96734.70;1629600;88;20261;-57
2021/05/08 09:04:23;;;;;;;;;;;;;;;9.86;43.24;96740.98;1655006;85;20247;-58
2021/05/08 09:06:51;;;;;;;;;;;;;;;9.91;43.55;96744.10;1676427;84;20297;-57
2021/05/08 09:09:19;;;;;;;;;;;;;;;9.99;43.69;96746.20;1654456;85;20234;-56
2021/05/08 09:11:50;;;;;;;;;;;;;;;10.07;43.21;96743.94;1676202;84;20246;-56
2021/05/08 09:14:24;;;;;;;;;;;;;;;10.10;43.09;96748.10;1655099;84;21361;-56
2021/05/08 09:17:10;;;;;;;;;;;;;;;10.13;43.68;96750.02;1656330;85;20254;-52
2021/05/08 09:19:42;;;;;;;;;;;;;;;10.17;43.81;96762.31;1649118;85;20248;-52
2021/05/08 09:22:28;;;;;;;;;;;;;;;10.22;43.96;96760.23;1656500;86;20229;-52
2021/05/08 09:25:00;;;;;;;;;;;;;;;10.25;44.22;96761.34;1647584;85;21951;-52
2021/05/08 09:27:49;;;;;;;;;;;;;;;10.41;43.72;96753.84;1891475;76;20238;-52
2021/05/08 09:30:25;;;;;;;;;;;;;;;10.53;43.33;96761.30;1852463;77;20429;-52
2021/05/08 09:32:58;;;;;;;;;;;;;;;10.68;43.23;96762.84;1852662;77;21347;-52
2021/05/08 09:35:29;;;;;;;;;;;;;;;10.78;42.91;96765.64;1852618;77;20173;-53
2021/05/08 09:38:10;;;;;;;;;;;;;;;10.83;42.78;96760.48;1850146;77;20193;-52
2021/05/08 09:40:40;;;;;;;;;;;;;;;10.93;42.93;96759.86;1793720;79;20215;-67
2021/05/08 09:43:11;;;;;;;;;;;;;;;10.99;42.29;96765.45;1802876;79;20532;-58
2021/05/08 09:45:40;;;;;;;;;;;;;;;11.05;42.02;96765.48;1777893;80;21371;-50
2021/05/08 09:48:27;;;;;;;;;;;;;;;11.10;42.23;96767.77;1776263;81;20187;-53
2021/05/08 09:51:25;;;;;;;;;;;;;;;11.16;41.89;96769.94;1673171;78;20233;-50
2021/05/08 09:54:13;;;;;;;;;;;;;;;11.21;42.07;96771.73;1685183;84;20226;-59
2021/05/08 09:56:47;;;;;;;;;;;;;;;11.26;41.72;96774.02;1679279;84;20233;-59
2021/05/08 09:59:38;;;;;;;;;;;;;;;11.33;40.46;96773.94;1692858;84;21516;-59
2021/05/08 10:02:10;;;;;;;;;;;;;;;11.36;40.52;96776.32;1700272;82;20558;-59
2021/05/08 10:04:48;;;;;;;;;;;;;;;11.37;40.35;96782.70;1733936;82;20221;-59
2021/05/08 10:07:21;;;;;;;;;;;;;;;11.41;40.93;96775.52;1715351;83;20140;-59
2021/05/08 10:09:53;;;;;;;;;;;;;;;11.49;40.38;96774.51;1737640;82;20245;-59
2021/05/08 10:12:22;;;;;;;;;;;;;;;11.72;40.60;96775.94;1715372;83;20231;-59
2021/05/08 10:14:51;;;;;;;;;;;;;;;11.99;39.98;96778.34;1715335;83;20161;-59
2021/05/08 10:17:29;;;;;;;;;;;;;;;12.16;39.72;96787.50;1738257;82;20221;-59
2021/05/08 10:20:05;;;;;;;;;;;;;;;12.20;39.27;96785.02;1728030;82;20229;-59
2021/05/08 10:22:35;;;;;;;;;;;;;;;12.20;39.16;96788.91;1722615;83;20241;-59
2021/05/08 10:25:03;;;;;;;;;;;;;;;12.12;39.14;96793.85;1724182;82;22245;-59
2021/05/08 10:27:32;;;;;;;;;;;;;;;12.06;39.46;96791.72;1744904;82;20213;-59
2021/05/08 10:29:59;;;;;;;;;;;;;;;11.98;39.73;96787.55;1731498;81;20226;-61
2021/05/08 10:32:27;;;;;;;;;;;;;;;11.92;39.94;96787.52;1715325;82;20231;-61
2021/05/08 10:35:02;;;;;;;;;;;;;;;11.88;40.42;96788.18;1719170;82;20317;-67
2021/05/08 10:37:30;;;;;;;;;;;;;;;11.98;40.56;96792.75;1744854;82;20420;-53
2021/05/08 10:40:10;;;;;;;;;;;;;;;12.14;40.29;96799.31;1743289;82;20213;-63
2021/05/08 10:42:44;;;;;;;;;;;;;;;12.31;39.51;96788.95;1714797;83;20243;-63
2021/05/08 10:45:21;;;;;;;;;;;;;;;12.40;39.25;96790.06;1724086;82;20241;-61
2021/05/08 10:47:59;;;;;;;;;;;;;;;12.45;39.21;96788.39;1744533;82;20241;-60
2021/05/08 10:50:47;;;;;;;;;;;;;;;12.48;39.34;96794.67;1744710;82;21370;-62
2021/05/08 10:53:17;;;;;;;;;;;;;;;12.50;38.58;96792.80;1745182;82;20671;-62
2021/05/08 10:55:52;;;;;;;;;;;;;;;12.45;38.71;96793.14;1743213;82;20238;-62
2021/05/08 10:58:23;;;;;;;;;;;;;;;12.48;38.80;96797.27;1720338;82;20214;-62
2021/05/08 11:00:58;;;;;;;;;;;;;;;12.47;38.62;96791.25;1734913;82;20218;-63
2021/05/08 11:03:32;;;;;;;;;;;;;;;12.45;38.72;96797.05;1745259;82;22404;-62
2021/05/08 11:06:13;;;;;;;;;;;;;;;12.47;38.27;96796.45;1736777;82;20296;-63
2021/05/08 11:08:43;;;;;;;;;;;;;;;12.43;38.33;96804.11;1729052;82;20229;-66
2021/05/08 11:11:23;;;;;;;;;;;;;;;12.37;38.24;96799.39;1745265;82;20508;-64
2021/05/08 11:13:54;;;;;;;;;;;;;;;12.33;38.33;96794.89;1745273;82;20222;-63
2021/05/08 11:16:27;;;;;;;;;;;;;;;12.29;38.64;96801.25;1720117;82;21136;-64
2021/05/08 11:18:58;;;;;;;;;;;;;;;12.29;38.83;96801.25;1688929;82;20883;-65
2021/05/08 11:21:32;;;;;;;;;;;;;;;12.31;38.63;96799.84;1728078;82;20276;-63
2021/05/08 11:24:02;;;;;;;;;;;;;;;12.33;38.74;96797.95;1732534;82;20381;-63
2021/05/08 11:26:35;;;;;;;;;;;;;;;12.32;38.64;96804.93;1745122;81;20218;-60
2021/05/08 11:29:21;;;;;;;;;;;;;;;12.30;38.46;96805.52;1741970;82;21198;-58
2021/05/08 11:31:50;;;;;;;;;;;;;;;12.25;38.66;96804.19;1740323;82;20221;-60
2021/05/08 11:34:31;;;;;;;;;;;;;;;12.09;38.75;96814.43;1744993;81;20249;-60
2021/05/08 11:37:07;;;;;;;;;;;;;;;11.95;39.29;96819.31;1728365;82;20506;-59
2021/05/08 11:39:45;;;;;;;;;;;;;;;11.86;39.81;96819.97;1742447;82;20233;-59
2021/05/08 11:42:19;;;;;;;;;;;;;;;11.82;39.35;96822.89;1718552;82;21214;-59
2021/05/08 11:44:58;;;;;;;;;;;;;;;11.81;39.71;96821.22;1742108;81;20628;-59
2021/05/08 11:47:27;;;;;;;;;;;;;;;11.86;39.54;96825.17;1724888;81;20283;-59
2021/05/08 11:50:00;;;;;;;;;;;;;;;11.83;39.28;96828.47;1721978;82;20351;-59
2021/05/08 11:52:39;;;;;;;;;;;;;;;11.78;39.73;96823.59;1730768;82;20237;-58
2021/05/08 11:55:22;;;;;;;;;;;;;;;11.76;39.55;96828.08;1720577;83;22266;-59
2021/05/08 11:58:01;;;;;;;;;;;;;;;11.71;39.81;96831.00;1727604;82;20232;-59
2021/05/08 12:00:28;;;;;;;;;;;;;;;11.66;39.87;96829.20;1725996;82;20555;-59
2021/05/08 12:03:13;;;;;;;;;;;;;;;11.60;40.13;96823.13;1741317;82;20500;-59
2021/05/08 12:05:42;;;;;;;;;;;;;;;11.55;40.98;96823.45;1745202;82;20217;-58
2021/05/08 12:08:09;;;;;;;;;;;;;;;11.53;40.85;96826.64;1743090;82;21260;-58
2021/05/08 12:10:39;;;;;;;;;;;;;;;11.56;40.43;96829.47;1729884;81;20218;-58
2021/05/08 12:13:06;;;;;;;;;;;;;;;11.69;39.85;96835.45;1745186;81;20280;-58
2021/05/08 12:15:37;;;;;;;;;;;;;;;11.90;39.18;96825.30;1745178;81;20302;-58
2021/05/08 12:18:08;;;;;;;;;;;;;;;12.06;38.36;96828.14;1745195;81;20213;-58
2021/05/08 12:20:38;;;;;;;;;;;;;;;12.11;38.04;96833.83;1743193;82;21375;-60
2021/05/08 12:23:11;;;;;;;;;;;;;;;12.07;38.19;96839.73;1723918;81;20640;-58
2021/05/08 12:25:38;;;;;;;;;;;;;;;12.01;38.02;96834.14;1729623;82;20489;-58
2021/05/08 12:28:17;;;;;;;;;;;;;;;11.91;37.87;96842.59;1736210;81;20968;-58
2021/05/08 12:30:48;;;;;;;;;;;;;;;11.79;38.08;96832.58;1727029;82;20508;-59
2021/05/08 12:33:21;;;;;;;;;;;;;;;11.72;38.40;96844.81;1745116;82;21353;-59
2021/05/08 12:35:51;;;;;;;;;;;;;;;11.70;38.58;96839.73;1738511;82;20230;-58
2021/05/08 12:38:25;;;;;;;;;;;;;;;11.82;38.91;96838.49;1724345;82;20221;-58
2021/05/08 12:40:53;;;;;;;;;;;;;;;11.90;38.04;96842.67;1745191;81;20237;-58
2021/05/08 12:43:28;;;;;;;;;;;;;;;12.04;37.88;96846.45;1731439;81;20221;-59
2021/05/08 12:46:07;;;;;;;;;;;;;;;12.17;37.21;96831.23;1717812;83;21212;-57
2021/05/08 12:48:37;;;;;;;;;;;;;;;12.25;36.29;96836.70;1717808;83;20221;-58
2021/05/08 12:51:24;;;;;;;;;;;;;;;12.33;35.82;96835.67;1719476;82;20493;-58
2021/05/08 12:54:17;;;;;;;;;;;;;;;12.48;35.61;96838.91;1727072;82;20223;-57
2021/05/08 12:56:47;;;;;;;;;;;;;;;12.66;35.36;96833.66;1706781;82;20254;-59
2021/05/08 12:59:27;;;;;;;;;;;;;;;12.81;34.70;96836.88;1745233;81;22106;-58
2021/05/08 13:02:15;;;;;;;;;;;;;;;12.79;34.49;96839.23;1745113;82;20134;-58
2021/05/08 13:04:50;;;;;;;;;;;;;;;12.69;33.99;96845.11;1743246;82;20217;-58
2021/05/08 13:07:27;;;;;;;;;;;;;;;12.45;34.74;96843.89;1745129;82;20237;-59
2021/05/08 13:10:19;;;;;;;;;;;;;;;12.29;34.93;96842.06;1739737;82;20217;-58